Time;durP1;ratioP1;P1;durP2;ratioP2;P2;SDS_P1;SDS_P2;PMS_P1;PMS_P2;Temp;Humidity;BMP_temperature;BMP_pressure;BME280_temperature;BME280_humidity;BME280_pressure;Samples;Min_cycle;Max_cycle;Signal;HPM_P1;HPM_P2
2024/01/30 00:01:52;;;;;;;23.67;16.90;;;7.90;99.90;;;;;;5078036;28;20169;-78
2024/01/30 00:04:17;;;;;;;23.40;15.70;;;7.90;99.90;;;;;;5095146;28;20207;-72
2024/01/30 00:06:44;;;;;;;23.33;16.30;;;7.90;99.90;;;;;;5095900;28;20252;-68
2024/01/30 00:09:10;;;;;;;22.50;16.30;;;8.00;99.90;;;;;;5077883;28;20686;-77
2024/01/30 00:11:37;;;;;;;19.50;14.90;;;8.00;99.90;;;;;;5096103;28;20495;-78
2024/01/30 00:14:03;;;;;;;18.37;14.70;;;8.00;99.90;;;;;;5095027;28;20419;-77
2024/01/30 00:16:29;;;;;;;20.97;15.23;;;8.00;99.90;;;;;;5095382;28;20640;-73
2024/01/30 00:18:55;;;;;;;17.63;13.20;;;8.00;99.90;;;;;;5095461;28;20882;-68
2024/01/30 00:21:21;;;;;;;24.50;16.97;;;8.00;99.90;;;;;;5095660;28;20169;-71
2024/01/30 00:23:47;;;;;;;28.30;16.60;;;8.00;99.90;;;;;;5095026;28;20395;-68
2024/01/30 00:26:14;;;;;;;20.90;16.53;;;8.00;99.90;;;;;;5095597;28;20403;-77
2024/01/30 00:28:41;;;;;;;20.40;15.60;;;8.00;99.90;;;;;;5095597;28;20446;-77
2024/01/30 00:31:07;;;;;;;24.17;16.90;;;8.00;99.90;;;;;;5095805;28;20388;-77
2024/01/30 00:33:32;;;;;;;22.03;16.03;;;8.00;99.90;;;;;;5093758;28;20900;-68
2024/01/30 00:35:58;;;;;;;19.50;15.47;;;8.10;99.90;;;;;;5095556;28;20710;-71
2024/01/30 00:38:24;;;;;;;24.97;16.83;;;8.10;99.90;;;;;;5095095;28;20178;-77
2024/01/30 00:40:50;;;;;;;24.73;17.70;;;8.10;99.90;;;;;;5095445;28;20381;-77
2024/01/30 00:43:16;;;;;;;23.13;16.20;;;8.10;99.90;;;;;;5094532;28;20195;-71
2024/01/30 00:45:43;;;;;;;23.37;18.00;;;8.10;99.90;;;;;;5094802;28;20189;-75
2024/01/30 00:48:09;;;;;;;23.40;17.90;;;8.10;99.90;;;;;;5095178;28;20454;-77
2024/01/30 00:50:35;;;;;;;24.00;18.33;;;8.10;99.90;;;;;;5094596;28;20399;-68
2024/01/30 00:53:01;;;;;;;20.90;17.40;;;8.10;99.90;;;;;;5094562;28;20675;-75
2024/01/30 00:55:26;;;;;;;26.77;17.50;;;8.10;99.90;;;;;;5095064;28;20210;-76
2024/01/30 00:57:52;;;;;;;23.07;18.27;;;8.10;99.90;;;;;;5094650;28;20211;-68
2024/01/30 01:00:18;;;;;;;23.43;17.60;;;8.10;99.90;;;;;;5095194;28;20519;-68
2024/01/30 01:02:44;;;;;;;24.70;17.00;;;8.20;99.90;;;;;;5094892;28;20164;-71
2024/01/30 01:05:10;;;;;;;21.73;16.80;;;8.20;99.90;;;;;;5094245;28;20393;-77
2024/01/30 01:07:36;;;;;;;21.73;16.43;;;8.10;99.90;;;;;;5094062;28;20417;-74
2024/01/30 01:10:02;;;;;;;22.77;16.70;;;8.20;99.90;;;;;;5094923;28;20872;-69
2024/01/30 01:12:28;;;;;;;23.87;16.60;;;8.20;99.90;;;;;;5095071;28;20530;-77
2024/01/30 01:14:54;;;;;;;21.27;16.57;;;8.20;99.90;;;;;;5093450;28;20418;-78
2024/01/30 01:17:19;;;;;;;21.83;17.90;;;8.20;99.90;;;;;;5076495;28;20422;-78
2024/01/30 01:19:45;;;;;;;19.77;15.90;;;8.20;99.90;;;;;;5076852;28;20319;-68
2024/01/30 01:22:11;;;;;;;22.60;14.90;;;8.20;99.90;;;;;;5094648;28;20546;-77
2024/01/30 01:24:37;;;;;;;24.33;17.27;;;8.20;99.90;;;;;;5092797;28;20201;-68
2024/01/30 01:27:03;;;;;;;27.10;16.70;;;8.20;99.90;;;;;;5094646;28;20442;-71
2024/01/30 01:29:29;;;;;;;22.83;16.20;;;8.20;99.90;;;;;;5094549;28;20211;-77
2024/01/30 01:31:55;;;;;;;28.90;18.37;;;8.20;99.90;;;;;;5093744;28;20400;-76
2024/01/30 01:34:21;;;;;;;23.67;18.07;;;8.20;99.90;;;;;;5093602;28;20419;-68
2024/01/30 01:36:47;;;;;;;22.93;16.23;;;8.20;99.90;;;;;;5094406;28;20404;-68
2024/01/30 01:39:13;;;;;;;22.10;15.77;;;8.20;99.90;;;;;;5094456;28;20463;-71
2024/01/30 01:41:38;;;;;;;19.70;15.33;;;8.20;99.90;;;;;;5075759;28;20230;-68
2024/01/30 01:44:05;;;;;;;21.17;16.53;;;8.20;99.90;;;;;;5093178;28;20165;-76
2024/01/30 01:46:33;;;;;;;23.57;16.77;;;8.20;99.90;;;;;;5094133;28;20618;-76
2024/01/30 01:49:02;;;;;;;23.80;17.20;;;8.20;99.90;;;;;;5094224;28;20376;-77
2024/01/30 01:51:29;;;;;;;25.17;17.30;;;8.20;99.90;;;;;;5093425;28;20906;-76
2024/01/30 01:53:56;;;;;;;26.87;18.53;;;8.20;99.90;;;;;;5074869;28;20413;-74
2024/01/30 01:56:24;;;;;;;26.77;17.57;;;8.20;99.90;;;;;;5075306;28;20458;-77
2024/01/30 01:58:51;;;;;;;21.33;16.20;;;8.20;99.90;;;;;;5075017;28;20402;-77
2024/01/30 02:01:19;;;;;;;24.27;17.97;;;8.20;99.90;;;;;;5093868;28;20392;-73
2024/01/30 02:03:46;;;;;;;24.00;17.50;;;8.20;99.90;;;;;;5093037;28;20407;-68
2024/01/30 02:06:16;;;;;;;23.30;17.87;;;8.20;99.90;;;;;;5075355;28;20575;-68
2024/01/30 02:08:42;;;;;;;21.23;17.23;;;8.30;99.90;;;;;;5093411;28;20432;-70
2024/01/30 02:11:08;;;;;;;24.23;16.83;;;8.20;99.90;;;;;;5093935;28;20366;-77
2024/01/30 02:13:34;;;;;;;22.60;17.00;;;8.20;99.90;;;;;;5092800;28;20402;-68
2024/01/30 02:16:00;;;;;;;21.37;16.67;;;8.20;99.90;;;;;;5092846;28;20812;-68
2024/01/30 02:18:26;;;;;;;24.50;19.17;;;8.20;99.90;;;;;;5093683;28;20417;-77
2024/01/30 02:20:56;;;;;;;25.33;17.50;;;8.10;99.90;;;;;;5093530;28;20914;-77
2024/01/30 02:23:25;;;;;;;27.50;17.73;;;8.10;99.90;;;;;;5092177;28;20164;-68
2024/01/30 02:25:52;;;;;;;23.67;17.73;;;8.10;99.90;;;;;;5093426;28;20459;-75
2024/01/30 02:28:19;;;;;;;23.33;17.90;;;8.00;99.90;;;;;;5093232;28;20530;-69
2024/01/30 02:30:46;;;;;;;21.40;16.27;;;7.90;99.90;;;;;;5093416;28;20862;-74
2024/01/30 02:33:13;;;;;;;19.37;16.70;;;7.90;99.90;;;;;;5091817;28;20443;-68
2024/01/30 02:35:39;;;;;;;25.20;18.70;;;7.90;99.90;;;;;;5075435;28;20429;-77
2024/01/30 02:38:04;;;;;;;18.00;16.03;;;7.80;99.90;;;;;;5074854;28;20408;-71
2024/01/30 02:40:31;;;;;;;21.03;15.47;;;7.80;99.90;;;;;;5092642;28;20899;-76
2024/01/30 02:42:59;;;;;;;23.37;15.23;;;7.80;99.90;;;;;;5092370;28;20424;-76
2024/01/30 02:45:25;;;;;;;23.70;17.90;;;7.80;99.90;;;;;;5093169;28;20462;-78
2024/01/30 02:47:50;;;;;;;21.20;17.00;;;7.70;99.90;;;;;;5093210;28;20836;-71
2024/01/30 02:50:16;;;;;;;26.07;17.30;;;7.70;99.90;;;;;;5091743;28;20493;-73
2024/01/30 02:52:45;;;;;;;21.50;17.60;;;7.60;99.90;;;;;;5073551;28;20194;-77
2024/01/30 02:55:11;;;;;;;22.23;17.63;;;7.60;99.90;;;;;;5072106;28;20186;-69
2024/01/30 02:57:40;;;;;;;19.30;16.07;;;7.60;99.90;;;;;;5072886;28;20402;-77
2024/01/30 03:00:09;;;;;;;22.80;16.90;;;7.60;99.90;;;;;;5072704;28;20922;-68
2024/01/30 03:02:35;;;;;;;20.53;17.50;;;7.50;99.90;;;;;;5072458;28;20402;-73
2024/01/30 03:05:01;;;;;;;18.77;15.90;;;7.50;99.90;;;;;;5071877;28;20429;-71
2024/01/30 03:07:27;;;;;;;24.57;17.87;;;7.50;99.90;;;;;;5083205;28;20439;-77
2024/01/30 03:09:55;;;;;;;20.17;16.93;;;7.40;99.90;;;;;;5092865;28;20167;-76
2024/01/30 03:12:21;;;;;;;20.30;16.03;;;7.40;99.90;;;;;;5092972;28;20388;-74
2024/01/30 03:14:47;;;;;;;19.73;15.43;;;7.40;99.90;;;;;;5073896;28;20426;-68
2024/01/30 03:17:12;;;;;;;23.20;16.77;;;7.40;99.90;;;;;;5092505;28;20421;-68
2024/01/30 03:19:38;;;;;;;22.40;15.70;;;7.40;99.90;;;;;;5092340;28;20182;-69
2024/01/30 03:22:04;;;;;;;19.40;14.80;;;7.40;99.90;;;;;;5092727;28;20169;-69
2024/01/30 03:24:29;;;;;;;19.97;16.03;;;7.40;99.90;;;;;;5085709;28;20223;-69
2024/01/30 03:26:55;;;;;;;21.70;16.00;;;7.30;99.90;;;;;;5092628;28;20619;-77
2024/01/30 03:29:21;;;;;;;23.77;15.93;;;7.30;99.90;;;;;;5074793;28;20257;-70
2024/01/30 03:31:46;;;;;;;20.27;15.37;;;7.30;99.90;;;;;;5092869;28;20169;-78
2024/01/30 03:34:12;;;;;;;19.53;15.57;;;7.20;99.90;;;;;;5091743;28;20595;-68
2024/01/30 03:36:38;;;;;;;19.00;15.57;;;7.20;99.90;;;;;;5092586;28;20646;-76
2024/01/30 03:39:03;;;;;;;18.90;15.13;;;7.20;99.90;;;;;;5073765;28;20171;-76
2024/01/30 03:41:29;;;;;;;21.57;15.00;;;7.10;99.90;;;;;;5091882;28;20177;-68
2024/01/30 03:43:55;;;;;;;20.73;13.63;;;7.10;99.90;;;;;;5073562;28;20172;-71
2024/01/30 03:46:20;;;;;;;22.60;15.27;;;7.00;99.90;;;;;;5092695;28;20163;-77
2024/01/30 03:48:46;;;;;;;19.40;16.00;;;7.00;99.90;;;;;;5092399;28;20663;-75
2024/01/30 03:51:14;;;;;;;19.40;14.33;;;7.00;99.90;;;;;;5074497;28;20312;-77
2024/01/30 03:53:41;;;;;;;17.20;13.77;;;7.00;99.90;;;;;;5073435;28;20525;-68
2024/01/30 03:56:07;;;;;;;19.03;14.83;;;7.00;99.90;;;;;;5091961;28;20424;-74
2024/01/30 03:58:33;;;;;;;21.70;14.90;;;7.00;99.90;;;;;;5091808;28;20412;-68
2024/01/30 04:00:58;;;;;;;17.67;15.00;;;6.90;99.90;;;;;;5092445;28;20741;-78
2024/01/30 04:03:24;;;;;;;22.80;15.33;;;6.90;99.90;;;;;;5091492;28;20290;-77
2024/01/30 04:05:52;;;;;;;15.50;13.43;;;6.90;99.90;;;;;;5092364;28;20212;-78
2024/01/30 04:08:18;;;;;;;18.90;14.10;;;6.80;99.90;;;;;;5092334;28;20451;-76
2024/01/30 04:10:43;;;;;;;22.13;16.10;;;6.80;99.90;;;;;;5074203;28;20469;-69
2024/01/30 04:13:09;;;;;;;20.17;14.90;;;6.80;99.90;;;;;;5091162;28;20977;-69
2024/01/30 04:15:35;;;;;;;16.63;13.20;;;6.80;99.90;;;;;;5073221;28;20194;-70
2024/01/30 04:18:00;;;;;;;21.27;15.67;;;6.70;99.90;;;;;;5074410;28;20186;-71
2024/01/30 04:20:26;;;;;;;18.60;14.13;;;6.70;99.90;;;;;;5076759;28;20180;-68
2024/01/30 04:22:52;;;;;;;21.60;14.60;;;6.70;99.90;;;;;;5094877;28;20173;-69
2024/01/30 04:25:17;;;;;;;16.67;14.70;;;6.60;99.90;;;;;;5095573;28;20286;-68
2024/01/30 04:27:43;;;;;;;19.90;15.03;;;6.60;99.90;;;;;;5095810;28;20684;-68
2024/01/30 04:30:09;;;;;;;17.37;14.73;;;6.60;99.90;;;;;;5095143;28;20244;-70
2024/01/30 04:32:36;;;;;;;16.17;14.27;;;6.50;99.90;;;;;;5094924;28;20169;-68
2024/01/30 04:35:02;;;;;;;20.90;13.90;;;6.40;99.90;;;;;;5094710;28;20420;-69
2024/01/30 04:37:28;;;;;;;23.60;16.30;;;6.40;99.90;;;;;;5095447;28;20742;-68
2024/01/30 04:39:53;;;;;;;17.40;14.90;;;6.40;99.90;;;;;;5095584;28;20407;-71
2024/01/30 04:42:19;;;;;;;20.20;14.53;;;6.40;99.90;;;;;;5095644;28;20580;-77
2024/01/30 04:44:45;;;;;;;19.23;14.40;;;6.40;99.90;;;;;;5094463;28;20272;-75
2024/01/30 04:47:11;;;;;;;21.10;13.83;;;6.40;99.90;;;;;;5095182;28;20199;-74
2024/01/30 04:49:39;;;;;;;16.13;13.23;;;6.40;99.90;;;;;;5094220;28;20172;-76
2024/01/30 04:52:06;;;;;;;17.30;13.53;;;6.40;99.90;;;;;;5095238;28;20461;-68
2024/01/30 04:54:31;;;;;;;18.60;14.53;;;6.40;99.90;;;;;;5094356;28;20416;-75
2024/01/30 04:56:58;;;;;;;21.70;14.80;;;6.30;99.90;;;;;;5095246;28;20457;-69
2024/01/30 04:59:24;;;;;;;17.47;13.43;;;6.30;99.90;;;;;;5095106;28;20166;-74
2024/01/30 05:01:49;;;;;;;19.07;14.40;;;6.30;99.90;;;;;;5077364;28;20476;-74
2024/01/30 05:04:15;;;;;;;21.43;15.77;;;6.30;99.90;;;;;;5094017;28;20792;-68
2024/01/30 05:06:41;;;;;;;20.10;16.00;;;6.20;99.90;;;;;;5075620;28;20195;-68
2024/01/30 05:09:07;;;;;;;16.87;13.97;;;6.20;99.90;;;;;;5095172;28;20166;-70
2024/01/30 05:11:42;;;;;;;19.40;14.17;;;6.20;99.90;;;;;;5094775;28;20400;-78
2024/01/30 05:14:11;;;;;;;18.30;14.27;;;6.10;99.90;;;;;;5076046;28;20450;-68
2024/01/30 05:16:37;;;;;;;20.27;13.23;;;6.10;99.90;;;;;;5094743;28;20961;-77
2024/01/30 05:19:03;;;;;;;23.37;14.43;;;6.00;99.90;;;;;;5094790;28;20392;-77
2024/01/30 05:21:28;;;;;;;17.20;14.37;;;6.00;99.90;;;;;;5094689;28;20400;-74
2024/01/30 05:23:54;;;;;;;18.00;14.80;;;6.00;99.90;;;;;;5092865;28;20184;-76
2024/01/30 05:26:20;;;;;;;16.47;13.17;;;6.00;99.90;;;;;;5094171;28;20165;-67
2024/01/30 05:28:45;;;;;;;16.83;13.50;;;6.00;99.90;;;;;;5094505;28;20197;-69
2024/01/30 05:31:11;;;;;;;16.20;12.87;;;6.00;99.90;;;;;;5094619;28;20165;-73
2024/01/30 05:33:37;;;;;;;15.67;13.57;;;6.00;99.90;;;;;;5093270;28;20176;-68
2024/01/30 05:36:03;;;;;;;16.67;13.23;;;6.00;99.90;;;;;;5094280;28;20669;-69
2024/01/30 05:38:29;;;;;;;19.40;14.70;;;6.00;99.90;;;;;;5094523;28;20181;-68
2024/01/30 05:40:55;;;;;;;17.67;13.83;;;6.00;99.90;;;;;;5075702;28;20419;-75
2024/01/30 05:43:20;;;;;;;27.10;13.90;;;5.90;99.90;;;;;;5093413;28;20576;-68
2024/01/30 05:45:46;;;;;;;19.50;14.17;;;5.90;99.90;;;;;;5093678;28;20427;-68
2024/01/30 05:48:12;;;;;;;16.13;13.23;;;5.90;99.90;;;;;;5075874;28;20281;-68
2024/01/30 05:50:37;;;;;;;14.30;12.77;;;6.00;99.90;;;;;;5094188;28;20226;-75
2024/01/30 05:53:03;;;;;;;16.63;13.40;;;6.00;99.90;;;;;;5093540;28;20171;-68
2024/01/30 05:55:29;;;;;;;16.73;13.30;;;6.00;99.90;;;;;;5076057;28;20367;-78
2024/01/30 05:57:55;;;;;;;20.33;14.30;;;5.90;99.90;;;;;;5093241;28;20208;-73
2024/01/30 06:00:21;;;;;;;18.10;14.03;;;5.90;99.90;;;;;;5094111;28;20211;-71
2024/01/30 06:02:46;;;;;;;18.63;12.53;;;5.90;99.90;;;;;;5093646;28;20396;-73
2024/01/30 06:05:12;;;;;;;17.40;12.60;;;5.90;99.90;;;;;;5092648;28;20189;-76
2024/01/30 06:07:38;;;;;;;15.60;12.20;;;5.90;99.90;;;;;;5093741;28;20217;-68
2024/01/30 06:10:04;;;;;;;16.90;12.80;;;5.80;99.90;;;;;;5075468;28;20174;-77
2024/01/30 06:12:30;;;;;;;14.43;13.00;;;5.80;99.90;;;;;;5073625;28;20904;-73
2024/01/30 06:14:56;;;;;;;16.60;13.93;;;5.80;99.90;;;;;;5074425;28;20447;-68
2024/01/30 06:17:23;;;;;;;16.90;13.27;;;5.70;99.90;;;;;;5075399;28;20181;-76
2024/01/30 06:19:49;;;;;;;15.60;13.37;;;5.80;99.90;;;;;;5093726;28;20404;-67
2024/01/30 06:22:16;;;;;;;14.87;12.23;;;5.70;99.90;;;;;;5093308;28;20487;-77
2024/01/30 06:24:44;;;;;;;15.73;14.10;;;5.70;99.90;;;;;;5092097;28;20481;-72
2024/01/30 06:27:10;;;;;;;15.97;12.43;;;5.70;99.90;;;;;;5093578;28;20526;-69
2024/01/30 06:29:35;;;;;;;19.83;13.17;;;5.70;99.90;;;;;;5093493;28;20876;-68
2024/01/30 06:32:01;;;;;;;14.07;12.57;;;5.70;99.90;;;;;;5092565;28;20173;-69
2024/01/30 06:34:27;;;;;;;19.20;14.10;;;5.70;99.90;;;;;;5074665;28;20185;-77
2024/01/30 06:36:52;;;;;;;17.07;13.67;;;5.70;99.90;;;;;;5093312;28;20162;-77
2024/01/30 06:39:18;;;;;;;17.77;15.90;;;5.70;99.90;;;;;;5093147;28;20196;-76
2024/01/30 06:41:46;;;;;;;16.83;13.70;;;5.70;99.90;;;;;;5092730;28;20158;-78
2024/01/30 06:44:12;;;;;;;22.30;13.60;;;5.70;99.90;;;;;;5091927;28;20497;-76
2024/01/30 06:46:39;;;;;;;15.70;14.10;;;5.70;99.90;;;;;;5092967;28;20400;-78
2024/01/30 06:49:04;;;;;;;19.10;13.90;;;5.70;99.90;;;;;;5074365;28;20834;-77
2024/01/30 06:51:30;;;;;;;14.20;12.80;;;5.80;99.90;;;;;;5074993;28;20404;-77
2024/01/30 06:53:56;;;;;;;19.43;14.10;;;5.80;99.90;;;;;;5092119;28;20432;-75
2024/01/30 06:56:22;;;;;;;19.83;14.50;;;5.80;99.90;;;;;;5075157;28;20169;-75
2024/01/30 06:58:49;;;;;;;16.30;13.60;;;5.70;99.90;;;;;;5092723;28;20169;-71
2024/01/30 07:01:15;;;;;;;16.10;14.13;;;5.70;99.90;;;;;;5092653;28;20403;-71
2024/01/30 07:03:40;;;;;;;14.33;12.83;;;5.60;99.90;;;;;;5092186;28;20407;-68
2024/01/30 07:06:06;;;;;;;15.77;14.13;;;5.60;99.90;;;;;;5091997;28;20504;-68
2024/01/30 07:08:32;;;;;;;15.33;12.63;;;5.60;99.90;;;;;;5074822;28;20204;-72
2024/01/30 07:10:57;;;;;;;17.50;13.80;;;5.60;99.90;;;;;;5092999;28;20518;-78
2024/01/30 07:13:24;;;;;;;17.27;14.07;;;5.60;99.90;;;;;;5091868;28;20164;-69
2024/01/30 07:15:50;;;;;;;14.60;13.10;;;5.60;99.90;;;;;;5092766;28;20189;-75
2024/01/30 07:18:15;;;;;;;15.00;13.33;;;5.60;99.90;;;;;;5092833;28;20876;-68
2024/01/30 07:20:45;;;;;;;18.27;12.70;;;5.60;99.90;;;;;;5092117;28;20403;-74
2024/01/30 07:23:13;;;;;;;17.13;15.33;;;5.70;99.90;;;;;;5090956;28;20681;-78
2024/01/30 07:25:41;;;;;;;20.90;14.77;;;5.60;99.90;;;;;;5092874;28;20422;-77
2024/01/30 07:28:11;;;;;;;16.90;13.73;;;5.70;99.90;;;;;;5092550;28;20967;-69
2024/01/30 07:30:37;;;;;;;14.70;12.83;;;5.70;99.90;;;;;;5092592;28;20491;-77
2024/01/30 07:33:03;;;;;;;18.80;12.57;;;5.70;99.90;;;;;;5091088;28;21006;-77
2024/01/30 07:35:29;;;;;;;14.27;12.50;;;5.70;99.90;;;;;;5074266;28;20669;-78
2024/01/30 07:37:54;;;;;;;16.60;13.73;;;5.70;99.90;;;;;;5092522;28;20457;-76
2024/01/30 07:40:20;;;;;;;18.73;14.03;;;5.70;99.90;;;;;;5073974;28;20180;-77
2024/01/30 07:42:46;;;;;;;19.93;14.00;;;5.70;99.90;;;;;;5092259;28;20282;-68
2024/01/30 07:45:11;;;;;;;15.50;13.83;;;5.70;99.90;;;;;;5091844;28;20182;-71
2024/01/30 07:47:37;;;;;;;17.77;14.50;;;5.70;99.90;;;;;;5092618;28;20199;-71
2024/01/30 07:50:03;;;;;;;18.77;15.30;;;5.70;99.90;;;;;;5092534;28;20215;-68
2024/01/30 07:52:29;;;;;;;17.23;13.73;;;5.70;99.90;;;;;;5092550;28;20634;-77
2024/01/30 07:54:55;;;;;;;14.50;13.00;;;5.70;99.90;;;;;;5092939;28;20419;-70
2024/01/30 07:57:21;;;;;;;15.93;14.10;;;5.80;99.90;;;;;;5095173;28;20586;-70
2024/01/30 07:59:46;;;;;;;19.90;13.43;;;5.70;99.90;;;;;;5096161;28;20399;-77
2024/01/30 08:02:13;;;;;;;15.10;13.20;;;5.70;99.90;;;;;;5096231;28;20715;-78
2024/01/30 08:04:39;;;;;;;15.77;13.77;;;5.80;99.90;;;;;;5095262;28;20657;-71
2024/01/30 08:07:04;;;;;;;18.03;13.10;;;5.80;99.90;;;;;;5096149;28;20431;-68
2024/01/30 08:09:30;;;;;;;19.10;15.43;;;5.80;99.90;;;;;;5096041;28;20803;-70
2024/01/30 08:11:56;;;;;;;18.57;14.30;;;5.80;99.90;;;;;;5095965;28;20174;-71
2024/01/30 08:14:22;;;;;;;16.73;14.50;;;5.90;99.90;;;;;;5094422;28;20280;-68
2024/01/30 08:16:48;;;;;;;19.40;14.20;;;5.80;99.90;;;;;;5095579;28;20265;-78
2024/01/30 08:19:14;;;;;;;16.60;14.50;;;5.90;99.90;;;;;;5095737;28;20241;-70
2024/01/30 08:21:40;;;;;;;17.80;14.67;;;5.90;99.90;;;;;;5096035;28;20923;-71
2024/01/30 08:24:07;;;;;;;19.00;14.30;;;6.00;99.90;;;;;;5094774;28;20407;-78
2024/01/30 08:26:33;;;;;;;18.90;13.60;;;6.00;99.90;;;;;;5095754;28;20214;-71
2024/01/30 08:28:59;;;;;;;17.90;13.83;;;6.00;99.90;;;;;;5095628;28;20451;-76
2024/01/30 08:31:24;;;;;;;21.60;14.27;;;6.00;99.90;;;;;;5094934;28;20918;-77
2024/01/30 08:33:50;;;;;;;17.27;14.63;;;6.00;99.90;;;;;;5094853;28;20165;-68
2024/01/30 08:36:17;;;;;;;18.87;14.20;;;6.10;99.90;;;;;;5094760;28;20246;-78
2024/01/30 08:38:42;;;;;;;15.80;13.40;;;6.10;99.90;;;;;;5095584;28;20249;-69
2024/01/30 08:41:08;;;;;;;16.40;13.70;;;6.10;99.90;;;;;;5077567;28;20511;-68
2024/01/30 08:43:34;;;;;;;19.40;15.00;;;6.10;99.90;;;;;;5094550;28;20884;-78
2024/01/30 08:46:00;;;;;;;16.17;13.77;;;6.20;99.90;;;;;;5077262;28;20197;-69
2024/01/30 08:48:26;;;;;;;18.27;14.20;;;6.20;99.90;;;;;;5094713;28;20591;-76
2024/01/30 08:50:52;;;;;;;19.77;14.40;;;6.30;99.90;;;;;;5095260;28;20400;-78
2024/01/30 08:53:18;;;;;;;16.67;14.20;;;6.30;99.90;;;;;;5094259;28;20400;-71
2024/01/30 08:55:44;;;;;;;20.60;15.27;;;6.30;99.90;;;;;;5094665;28;20525;-72
2024/01/30 08:58:10;;;;;;;26.90;16.60;;;6.40;99.90;;;;;;5095221;28;20524;-74
2024/01/30 09:00:36;;;;;;;23.73;16.60;;;6.40;99.90;;;;;;5077025;28;20836;-74
2024/01/30 09:03:02;;;;;;;29.17;17.63;;;6.50;99.90;;;;;;5076054;28;20177;-73
2024/01/30 09:05:27;;;;;;;19.07;15.67;;;6.50;99.90;;;;;;5074595;28;20428;-73
2024/01/30 09:07:53;;;;;;;16.80;14.33;;;6.60;99.90;;;;;;5056941;28;20536;-76
2024/01/30 09:10:20;;;;;;;14.80;12.80;;;6.70;99.90;;;;;;5074720;28;20305;-76
2024/01/30 09:12:46;;;;;;;21.40;13.90;;;6.70;99.90;;;;;;5074484;28;20159;-73
2024/01/30 09:15:12;;;;;;;16.43;14.37;;;6.70;99.90;;;;;;5055722;28;20907;-76
2024/01/30 09:17:37;;;;;;;17.97;14.17;;;6.80;99.90;;;;;;5056901;28;20487;-69
2024/01/30 09:20:03;;;;;;;17.93;13.50;;;6.80;99.90;;;;;;5074561;28;20171;-77
2024/01/30 09:22:29;;;;;;;14.60;13.10;;;6.90;99.90;;;;;;5075074;28;20197;-78
2024/01/30 09:24:55;;;;;;;15.67;13.37;;;6.90;99.90;;;;;;5084145;28;21143;-71
2024/01/30 09:27:20;;;;;;;18.07;14.20;;;7.00;99.90;;;;;;5072981;28;20297;-74
2024/01/30 09:29:46;;;;;;;22.50;13.93;;;7.00;99.90;;;;;;5074422;28;20193;-76
2024/01/30 09:32:12;;;;;;;17.13;14.43;;;7.00;99.90;;;;;;5074590;28;20170;-76
2024/01/30 09:34:39;;;;;;;19.83;14.37;;;7.10;99.90;;;;;;5093361;28;20657;-71
2024/01/30 09:37:05;;;;;;;18.47;14.73;;;7.20;99.90;;;;;;5094625;28;20534;-68
2024/01/30 09:39:30;;;;;;;18.40;14.03;;;7.30;99.90;;;;;;5092678;28;20408;-74
2024/01/30 09:42:05;;;;;;;16.60;13.50;;;7.40;99.90;;;;;;5076341;28;20170;-75
2024/01/30 09:44:31;;;;;;;19.17;14.27;;;7.50;99.90;;;;;;5075590;28;20215;-68
2024/01/30 09:47:03;;;;;;;16.83;13.47;;;7.50;99.90;;;;;;5076558;28;20421;-68
2024/01/30 09:49:31;;;;;;;18.57;13.00;;;7.50;99.90;;;;;;5093758;28;20374;-68
2024/01/30 09:51:57;;;;;;;20.63;14.97;;;7.60;99.90;;;;;;5075833;28;20470;-69
2024/01/30 09:54:23;;;;;;;16.90;13.13;;;7.60;99.90;;;;;;5091853;28;20447;-70
2024/01/30 09:56:49;;;;;;;17.33;13.70;;;7.70;99.90;;;;;;5094277;28;20394;-76
2024/01/30 09:59:15;;;;;;;16.87;13.80;;;7.70;99.90;;;;;;5094110;28;20170;-71
2024/01/30 10:01:42;;;;;;;17.20;14.80;;;7.80;99.90;;;;;;5092261;28;20177;-74
2024/01/30 10:04:08;;;;;;;18.30;14.80;;;7.80;99.90;;;;;;5073533;28;20489;-77
2024/01/30 10:06:34;;;;;;;24.00;17.00;;;7.90;99.90;;;;;;5072739;28;20504;-77
2024/01/30 10:09:00;;;;;;;20.77;15.20;;;8.00;99.90;;;;;;5073891;28;20212;-77
2024/01/30 10:11:27;;;;;;;16.23;13.60;;;8.00;99.90;;;;;;5081718;28;20405;-76
2024/01/30 10:13:52;;;;;;;21.60;15.00;;;8.10;99.90;;;;;;5074953;28;20254;-68
2024/01/30 10:16:18;;;;;;;23.60;13.60;;;8.10;99.90;;;;;;5090649;28;20531;-74
2024/01/30 10:18:44;;;;;;;15.43;13.70;;;8.10;99.90;;;;;;5072770;28;20168;-69
2024/01/30 10:21:10;;;;;;;16.20;12.63;;;8.10;99.90;;;;;;5073364;28;20407;-77
2024/01/30 10:23:36;;;;;;;15.67;13.90;;;8.20;99.90;;;;;;5076026;28;20177;-77
2024/01/30 10:26:07;;;;;;;17.83;14.23;;;8.20;99.90;;;;;;5093490;28;20184;-76
2024/01/30 10:28:32;;;;;;;17.43;13.50;;;8.20;99.90;;;;;;5092807;28;20427;-77
2024/01/30 10:31:03;;;;;;;15.47;13.33;;;8.30;99.90;;;;;;5093724;28;20378;-69
2024/01/30 10:33:30;;;;;;;14.77;13.00;;;8.30;99.90;;;;;;5092714;28;20650;-69
2024/01/30 10:36:04;;;;;;;16.07;14.27;;;8.40;99.90;;;;;;5074605;28;20425;-77
2024/01/30 10:38:30;;;;;;;23.17;14.80;;;8.50;99.90;;;;;;5093251;28;20528;-70
2024/01/30 10:41:00;;;;;;;19.53;15.10;;;8.50;99.90;;;;;;5093061;28;20457;-69
2024/01/30 10:43:36;;;;;;;19.97;16.87;;;8.50;99.90;;;;;;5092026;28;20498;-68
2024/01/30 10:46:18;;;;;;;24.60;14.30;;;8.60;99.90;;;;;;5092183;28;20402;-77
2024/01/30 10:48:50;;;;;;;20.13;15.13;;;8.70;99.90;;;;;;5093260;28;20442;-68
2024/01/30 10:51:18;;;;;;;13.57;12.17;;;8.70;99.90;;;;;;5093297;28;20502;-68
2024/01/30 10:53:46;;;;;;;18.33;13.90;;;8.70;99.90;;;;;;5092244;28;20395;-69
2024/01/30 10:56:13;;;;;;;15.87;13.40;;;8.70;99.90;;;;;;5093017;28;20458;-77
2024/01/30 10:58:39;;;;;;;19.03;13.97;;;8.80;99.90;;;;;;5074473;28;20416;-68
2024/01/30 11:01:06;;;;;;;17.90;14.20;;;8.80;99.90;;;;;;5092997;28;20460;-77
2024/01/30 11:03:36;;;;;;;20.20;13.83;;;8.80;99.90;;;;;;5073992;28;20184;-77
2024/01/30 11:06:02;;;;;;;14.70;12.87;;;8.90;99.90;;;;;;5092890;28;20424;-77
2024/01/30 11:08:28;;;;;;;19.03;13.03;;;8.90;99.90;;;;;;5074835;28;20457;-77
2024/01/30 11:10:58;;;;;;;14.63;13.13;;;9.00;99.90;;;;;;5093154;28;20845;-71
2024/01/30 11:13:31;;;;;;;16.30;12.40;;;9.10;99.90;;;;;;5092073;28;20382;-68
2024/01/30 11:16:04;;;;;;;19.27;13.33;;;9.10;99.90;;;;;;5092952;28;20386;-74
2024/01/30 11:18:31;;;;;;;15.43;13.00;;;9.00;99.90;;;;;;5092048;28;20381;-74
2024/01/30 11:21:00;;;;;;;19.93;14.60;;;9.00;99.90;;;;;;5092108;28;20556;-76
2024/01/30 11:23:27;;;;;;;14.27;12.63;;;9.00;99.90;;;;;;5073934;28;20732;-68
2024/01/30 11:25:53;;;;;;;16.10;12.50;;;9.00;99.90;;;;;;5092797;28;20407;-74
2024/01/30 11:28:21;;;;;;;17.10;14.50;;;9.10;99.90;;;;;;5092442;28;20433;-76
2024/01/30 11:30:50;;;;;;;20.53;14.30;;;9.10;99.90;;;;;;5096994;28;20422;-77
2024/01/30 11:33:27;;;;;;;23.87;14.77;;;9.10;99.90;;;;;;5095820;28;20380;-71
2024/01/30 11:35:53;;;;;;;14.43;12.93;;;9.00;99.90;;;;;;5076149;28;20411;-68
2024/01/30 11:38:19;;;;;;;16.03;13.33;;;9.00;99.90;;;;;;5094767;28;20414;-68
2024/01/30 11:40:45;;;;;;;18.20;13.67;;;9.00;99.90;;;;;;5096888;28;20253;-73
2024/01/30 11:43:11;;;;;;;20.33;15.50;;;9.10;99.90;;;;;;5095948;28;20410;-74
2024/01/30 11:45:37;;;;;;;18.13;15.30;;;9.00;99.90;;;;;;5096635;28;20398;-77
2024/01/30 11:48:04;;;;;;;19.53;15.37;;;9.00;99.90;;;;;;5078562;28;20457;-68
2024/01/30 11:50:33;;;;;;;18.80;15.27;;;9.00;99.90;;;;;;5096568;28;20453;-68
2024/01/30 11:53:00;;;;;;;21.43;14.60;;;9.10;99.90;;;;;;5094934;28;20434;-69
2024/01/30 11:55:26;;;;;;;19.03;14.50;;;9.10;99.90;;;;;;5078284;28;20409;-68
2024/01/30 11:57:54;;;;;;;19.43;14.67;;;9.10;99.90;;;;;;5096531;28;20874;-68
2024/01/30 12:00:20;;;;;;;28.23;15.47;;;9.20;99.90;;;;;;5096473;28;20177;-70
2024/01/30 12:02:51;;;;;;;17.57;13.37;;;9.20;99.90;;;;;;5096281;28;20947;-74
2024/01/30 12:05:19;;;;;;;17.60;13.50;;;9.20;99.90;;;;;;5095995;28;20400;-77
2024/01/30 12:07:46;;;;;;;22.53;14.90;;;9.30;99.90;;;;;;5096279;28;20420;-72
2024/01/30 12:10:13;;;;;;;18.47;13.50;;;9.30;99.90;;;;;;5095434;28;20727;-68
2024/01/30 12:12:41;;;;;;;22.30;14.73;;;9.30;99.90;;;;;;5095405;28;20381;-74
2024/01/30 12:15:07;;;;;;;16.73;13.17;;;9.30;99.90;;;;;;5095370;28;20405;-73
2024/01/30 12:17:34;;;;;;;18.80;14.57;;;9.40;99.90;;;;;;5096206;28;20377;-68
2024/01/30 12:20:08;;;;;;;20.13;14.40;;;9.30;99.90;;;;;;5096057;28;20735;-72
2024/01/30 12:22:43;;;;;;;20.00;14.63;;;9.40;99.90;;;;;;5077956;28;20421;-77
2024/01/30 12:25:10;;;;;;;18.90;14.20;;;9.40;99.90;;;;;;5095135;28;20491;-76
2024/01/30 12:27:36;;;;;;;28.37;14.53;;;9.50;99.90;;;;;;5095083;28;20425;-77
2024/01/30 12:30:06;;;;;;;15.30;13.33;;;9.50;99.90;;;;;;5094883;28;20378;-70
2024/01/30 12:32:35;;;;;;;19.67;14.53;;;9.50;99.90;;;;;;5095852;28;20366;-68